createdAt,value
2018-10-11T00:01:45.567Z,13.30
2018-10-11T00:04:14.378Z,13.30
2018-10-11T00:11:40.666Z,13.20
2018-10-11T00:14:09.756Z,13.20
2018-10-11T00:16:39.285Z,13.20
2018-10-11T00:21:37.318Z,13.10
2018-10-11T00:26:34.789Z,13.10
2018-10-11T00:31:32.397Z,13.10
2018-10-11T00:34:01.258Z,13.10
2018-10-11T00:38:58.686Z,13.00
2018-10-11T00:41:27.546Z,13.00
2018-10-11T00:43:56.417Z,13.00
2018-10-11T00:46:25.311Z,13.00
2018-10-11T00:51:22.693Z,13.00
2018-10-11T00:58:48.646Z,12.90
2018-10-11T01:01:17.523Z,12.90
2018-10-11T01:13:40.721Z,12.80
2018-10-11T01:16:09.581Z,12.70
2018-10-11T01:21:07.188Z,12.70
2018-10-11T01:26:04.650Z,12.70
2018-10-11T01:36:04.637Z,12.70
2018-10-11T01:41:02.049Z,12.70
2018-10-11T01:43:30.939Z,12.70
2018-10-11T01:45:59.896Z,12.70
2018-10-11T01:48:28.752Z,12.80
2018-10-11T01:50:57.669Z,12.80
2018-10-11T01:55:55.106Z,12.80
2018-10-11T02:05:49.685Z,12.70
2018-10-11T02:10:47.154Z,12.80
2018-10-11T02:13:16.100Z,12.80
2018-10-11T02:23:10.709Z,12.90
2018-10-11T02:25:40.174Z,13.00
2018-10-11T02:30:38.058Z,13.10
2018-10-11T02:33:07.016Z,13.10
2018-10-11T02:38:04.434Z,13.10
2018-10-11T02:43:01.820Z,13.30
2018-10-11T02:45:30.694Z,13.30
2018-10-11T02:47:59.600Z,13.30
2018-10-11T02:50:28.500Z,13.30
2018-10-11T02:52:57.358Z,13.30
2018-10-11T02:58:07.162Z,13.30
2018-10-11T03:03:06.245Z,13.20
2018-10-11T03:05:36.617Z,13.30
2018-10-11T03:08:06.822Z,13.30
2018-10-11T03:10:35.749Z,13.20
2018-10-11T03:13:07.266Z,13.30
2018-10-11T03:18:04.720Z,13.20
2018-10-11T03:23:02.193Z,13.20
2018-10-11T03:25:31.109Z,13.30
2018-10-11T03:27:59.970Z,13.20
2018-10-11T03:35:26.146Z,13.20
2018-10-11T03:37:55.294Z,13.20
2018-10-11T03:42:52.824Z,13.20
2018-10-11T03:45:21.698Z,13.20
2018-10-11T03:52:47.715Z,13.20
2018-10-11T04:05:10.854Z,13.10
2018-10-11T04:07:39.752Z,13.30
2018-10-11T04:10:08.578Z,13.20
2018-10-11T04:12:37.589Z,13.20
2018-10-11T04:22:32.172Z,13.30
2018-10-11T04:25:01.102Z,13.30
2018-10-11T04:27:30.010Z,13.20
2018-10-11T04:34:56.034Z,13.20
2018-10-11T04:37:24.953Z,13.20
2018-10-11T04:42:22.377Z,13.30
2018-10-11T04:44:51.314Z,13.20
2018-10-11T04:47:20.158Z,13.20
2018-10-11T04:52:17.570Z,13.10
2018-10-11T04:57:15.019Z,13.10
2018-10-11T05:04:41.221Z,13.00
2018-10-11T05:07:10.194Z,12.90
2018-10-11T05:12:07.619Z,12.90
2018-10-11T05:17:05.083Z,13.00
2018-10-11T05:22:02.717Z,13.00
2018-10-11T05:24:31.578Z,13.00
2018-10-11T05:34:26.408Z,13.00
2018-10-11T05:36:55.390Z,13.10
2018-10-11T05:41:52.976Z,13.00
2018-10-11T05:44:21.858Z,13.10
2018-10-11T05:46:50.806Z,13.10
2018-10-11T05:49:19.688Z,13.10
2018-10-11T05:54:17.117Z,13.10
2018-10-11T05:59:14.625Z,13.10
2018-10-11T06:01:43.626Z,13.20
2018-10-11T06:06:41.066Z,13.20
2018-10-11T06:09:10.740Z,13.10
2018-10-11T06:14:08.258Z,13.20
2018-10-11T06:16:37.173Z,13.20
2018-10-11T06:19:06.399Z,13.30
2018-10-11T06:21:35.280Z,13.30
2018-10-11T06:26:32.717Z,13.30
2018-10-11T06:29:01.652Z,13.40
2018-10-11T06:38:57.052Z,13.50
2018-10-11T06:41:25.913Z,13.60
2018-10-11T06:43:54.847Z,13.60
2018-10-11T06:46:23.711Z,13.70
2018-10-11T07:01:17.676Z,14.10
2018-10-11T07:08:43.692Z,14.20
2018-10-11T07:13:41.309Z,14.40
2018-10-11T07:16:10.196Z,14.40
2018-10-11T07:18:39.062Z,14.50
2018-10-11T07:21:07.950Z,14.60
2018-10-11T07:23:36.881Z,14.70
2018-10-11T07:31:02.770Z,14.90
2018-10-11T07:38:28.927Z,15.10
2018-10-11T07:40:57.905Z,15.20
2018-10-11T07:43:26.702Z,15.20
2018-10-11T07:45:55.563Z,15.30
2018-10-11T07:48:24.459Z,15.30
2018-10-11T07:50:53.307Z,15.40
2018-10-11T07:53:22.170Z,15.40
2018-10-11T07:55:51.054Z,15.50
2018-10-11T07:58:19.927Z,15.50
2018-10-11T08:00:48.820Z,15.60
2018-10-11T08:03:17.719Z,15.60
2018-10-11T08:05:46.593Z,15.60
2018-10-11T08:08:15.508Z,15.70
2018-10-11T08:13:12.946Z,15.80
2018-10-11T08:15:41.782Z,15.90
2018-10-11T08:18:10.654Z,15.90
2018-10-11T08:20:39.620Z,16.00
2018-10-11T08:23:08.398Z,16.00
2018-10-11T08:25:37.782Z,16.10
2018-10-11T08:28:06.145Z,16.20
2018-10-11T08:30:35.023Z,16.20
2018-10-11T08:33:03.962Z,16.20
2018-10-11T08:35:33.050Z,16.20
2018-10-11T08:38:02.171Z,16.30
2018-10-11T08:40:30.888Z,16.40
2018-10-11T08:42:59.786Z,16.50
2018-10-11T08:45:28.675Z,16.60
2018-10-11T08:47:57.598Z,16.60
2018-10-11T08:50:26.639Z,16.60
2018-10-11T08:52:55.518Z,16.60
2018-10-11T08:55:24.461Z,16.60
2018-10-11T08:57:53.298Z,16.60
2018-10-11T09:00:22.229Z,16.70
2018-10-11T09:02:51.106Z,16.70
2018-10-11T09:05:20.045Z,16.70
2018-10-11T09:07:48.897Z,16.90
2018-10-11T09:10:17.848Z,16.80
2018-10-11T09:12:46.749Z,16.90
2018-10-11T09:15:15.686Z,17.10
2018-10-11T09:17:44.567Z,17.30
2018-10-11T09:20:13.577Z,17.30
2018-10-11T09:22:42.517Z,17.30
2018-10-11T09:25:11.397Z,17.40
2018-10-11T09:27:40.291Z,17.50
2018-10-11T09:30:09.207Z,17.50
2018-10-11T09:32:38.141Z,17.50
2018-10-11T09:35:07.206Z,17.60
2018-10-11T09:37:36.121Z,17.50
2018-10-11T09:40:05.097Z,17.60
2018-10-11T09:42:34.038Z,17.70
2018-10-11T09:45:02.981Z,17.80
2018-10-11T09:47:31.874Z,18.00
2018-10-11T09:50:00.818Z,18.00
2018-10-11T09:52:29.706Z,18.00
2018-10-11T09:54:58.680Z,18.10
2018-10-11T09:57:29.649Z,18.10
2018-10-11T09:59:59.330Z,18.20
2018-10-11T10:02:28.680Z,18.30
2018-10-11T10:04:59.726Z,18.20
2018-10-11T10:07:28.665Z,18.30
2018-10-11T10:09:57.705Z,18.40
2018-10-11T10:12:26.493Z,18.50
2018-10-11T10:14:55.473Z,18.50
2018-10-11T10:17:24.409Z,18.50
2018-10-11T10:19:53.296Z,18.60
2018-10-11T10:22:22.216Z,18.80
2018-10-11T10:24:51.091Z,18.80
2018-10-11T10:27:20.132Z,18.80
2018-10-11T10:29:48.936Z,18.80
2018-10-11T10:32:17.801Z,18.80
2018-10-11T10:34:46.702Z,18.90
2018-10-11T10:37:15.600Z,19.00
2018-10-11T10:39:44.555Z,19.20
2018-10-11T10:42:13.406Z,19.30
2018-10-11T10:44:42.280Z,19.40
2018-10-11T10:47:11.166Z,19.50
2018-10-11T10:49:40.073Z,19.60
2018-10-11T10:52:08.942Z,19.60
2018-10-11T10:54:37.828Z,19.70
2018-10-11T10:57:07.069Z,19.80
2018-10-11T10:59:35.905Z,19.80
2018-10-11T11:02:04.787Z,20.00
2018-10-11T11:04:33.672Z,20.00
2018-10-11T11:07:02.538Z,20.00
2018-10-11T11:09:31.427Z,20.10
2018-10-11T11:12:00.298Z,20.20
2018-10-11T11:14:29.169Z,20.10
2018-10-11T11:16:58.071Z,20.10
2018-10-11T11:19:26.957Z,20.20
2018-10-11T11:21:55.914Z,20.20
2018-10-11T11:24:24.758Z,20.40
2018-10-11T11:26:53.626Z,20.50
2018-10-11T11:29:22.502Z,20.60
2018-10-11T11:31:51.443Z,20.50
2018-10-11T11:36:48.851Z,20.50
2018-10-11T11:41:46.269Z,20.50
2018-10-11T11:44:15.142Z,20.60
2018-10-11T11:46:44.027Z,20.70
2018-10-11T11:49:12.911Z,20.80
2018-10-11T11:51:42.399Z,20.90
2018-10-11T11:54:18.418Z,20.90
2018-10-11T11:59:16.046Z,21.10
2018-10-11T12:01:44.889Z,21.10
2018-10-11T12:04:13.763Z,21.10
2018-10-11T12:06:42.707Z,21.20
2018-10-11T12:09:12.950Z,21.20
2018-10-11T12:11:42.211Z,21.30
2018-10-11T12:14:11.088Z,21.50
2018-10-11T12:16:40.073Z,21.50
2018-10-11T12:19:10.406Z,21.60
2018-10-11T12:21:39.602Z,21.60
2018-10-11T12:24:09.534Z,21.60
2018-10-11T12:26:38.422Z,21.50
2018-10-11T12:29:07.406Z,21.50
2018-10-11T12:31:36.199Z,21.50
2018-10-11T12:34:05.079Z,21.60
2018-10-11T12:36:34.091Z,21.60
2018-10-11T12:39:03.651Z,21.60
2018-10-11T12:41:32.548Z,21.60
2018-10-11T12:44:01.430Z,21.50
2018-10-11T12:46:38.165Z,21.50
2018-10-11T12:48:59.194Z,21.40
2018-10-11T12:51:28.298Z,21.40
2018-10-11T12:53:57.223Z,21.30
2018-10-11T12:56:26.154Z,21.20
2018-10-11T12:58:55.007Z,21.30
2018-10-11T13:01:24.258Z,21.40
2018-10-11T13:03:52.822Z,21.50
2018-10-11T13:06:21.762Z,21.40
2018-10-11T13:08:50.668Z,21.40
2018-10-11T13:11:19.556Z,21.20
2018-10-11T13:13:51.173Z,21.30
2018-10-11T13:16:17.498Z,21.10
2018-10-11T13:18:46.403Z,21.10
2018-10-11T13:21:15.319Z,20.80
2018-10-11T13:23:44.218Z,21.00
2018-10-11T13:26:13.116Z,21.10
2018-10-11T13:28:42.042Z,21.20
2018-10-11T13:31:10.910Z,21.20
2018-10-11T13:36:08.743Z,21.20
2018-10-11T13:38:37.693Z,21.30
2018-10-11T13:41:06.659Z,21.30
2018-10-11T13:43:35.474Z,21.30
2018-10-11T13:46:04.385Z,21.30
2018-10-11T13:48:33.262Z,21.40
2018-10-11T13:51:02.200Z,21.40
2018-10-11T13:53:31.172Z,21.30
2018-10-11T13:56:00.054Z,21.30
2018-10-11T13:58:28.958Z,21.30
2018-10-11T14:00:57.855Z,21.30
2018-10-11T14:03:26.805Z,21.30
2018-10-11T14:05:55.703Z,21.40
2018-10-11T14:08:24.605Z,21.30
2018-10-11T14:10:53.503Z,21.30
2018-10-11T14:13:22.422Z,21.20
2018-10-11T14:15:51.355Z,21.20
2018-10-11T14:18:20.266Z,21.20
2018-10-11T14:20:49.165Z,21.20
2018-10-11T14:23:18.107Z,21.20
2018-10-11T14:28:16.260Z,21.30
2018-10-11T14:30:45.115Z,21.30
2018-10-11T14:33:14.039Z,21.30
2018-10-11T14:35:42.956Z,21.30
2018-10-11T14:38:11.871Z,21.30
2018-10-11T14:40:40.799Z,21.30
2018-10-11T14:43:09.704Z,21.30
2018-10-11T14:45:38.599Z,21.20
2018-10-11T14:48:07.501Z,21.20
2018-10-11T14:50:36.382Z,21.20
2018-10-11T14:53:05.306Z,21.30
2018-10-11T14:55:34.260Z,21.30
2018-10-11T14:58:03.100Z,21.40
2018-10-11T15:00:32.017Z,21.40
2018-10-11T15:03:01.041Z,21.50
2018-10-11T15:05:29.882Z,21.50
2018-10-11T15:07:58.776Z,21.50
2018-10-11T15:10:27.750Z,21.60
2018-10-11T15:12:56.563Z,21.60
2018-10-11T15:15:25.483Z,21.70
2018-10-11T15:17:54.471Z,21.70
2018-10-11T15:20:23.262Z,21.60
2018-10-11T15:22:52.147Z,21.60
2018-10-11T15:25:21.048Z,21.60
2018-10-11T15:27:49.929Z,21.40
2018-10-11T15:32:47.369Z,21.10
2018-10-11T15:35:16.239Z,21.10
2018-10-11T15:37:45.110Z,21.00
2018-10-11T15:40:13.983Z,20.90
2018-10-11T15:42:42.943Z,20.90
2018-10-11T15:45:11.729Z,20.90
2018-10-11T15:47:40.609Z,20.70
2018-10-11T15:55:07.292Z,20.60
2018-10-11T15:57:36.142Z,20.60
2018-10-11T16:00:05.359Z,20.70
2018-10-11T16:02:34.270Z,20.50
2018-10-11T16:05:03.154Z,20.70
2018-10-11T16:07:32.023Z,20.60
2018-10-11T16:10:00.941Z,20.60
2018-10-11T16:12:29.767Z,20.60
2018-10-11T16:14:58.678Z,20.50
2018-10-11T16:17:27.559Z,20.50
2018-10-11T16:19:56.447Z,20.60
2018-10-11T16:22:25.356Z,20.60
2018-10-11T16:24:54.293Z,20.50
2018-10-11T16:27:23.168Z,20.50
2018-10-11T16:29:52.043Z,20.40
2018-10-11T16:32:21.076Z,20.50
2018-10-11T16:34:49.805Z,20.50
2018-10-11T16:37:18.700Z,20.40
2018-10-11T16:39:47.605Z,20.40
2018-10-11T16:42:16.483Z,20.30
2018-10-11T16:44:45.358Z,20.20
2018-10-11T16:47:14.331Z,20.20
2018-10-11T16:49:43.289Z,20.10
2018-10-11T16:52:12.111Z,20.10
2018-10-11T16:54:43.954Z,20.00
2018-10-11T16:57:14.683Z,20.00
2018-10-11T16:59:43.934Z,19.90
2018-10-11T17:02:12.897Z,19.80
2018-10-11T17:04:41.807Z,19.70
2018-10-11T17:07:10.723Z,19.70
2018-10-11T17:09:39.666Z,19.60
2018-10-11T17:12:08.525Z,19.50
2018-10-11T17:14:37.379Z,19.50
2018-10-11T17:17:06.270Z,19.40
2018-10-11T17:19:35.163Z,19.30
2018-10-11T17:24:32.595Z,19.10
2018-10-11T17:27:01.494Z,19.00
2018-10-11T17:29:30.406Z,18.90
2018-10-11T17:36:56.505Z,18.80
2018-10-11T17:39:25.393Z,18.60
2018-10-11T17:41:54.336Z,18.60
2018-10-11T17:44:23.222Z,18.60
2018-10-11T17:46:52.107Z,18.50
2018-10-11T17:54:18.105Z,18.30
2018-10-11T17:56:47.046Z,18.30
2018-10-11T18:01:44.492Z,18.20
2018-10-11T18:04:13.371Z,18.20
2018-10-11T18:09:11.531Z,18.10
2018-10-11T18:11:40.486Z,18.10
2018-10-11T18:14:09.968Z,18.10
2018-10-11T18:16:38.954Z,18.10
2018-10-11T18:19:08.019Z,18.10
2018-10-11T18:24:05.467Z,18.00
2018-10-11T18:29:02.907Z,18.10
2018-10-11T18:31:31.807Z,18.00
2018-10-11T18:46:23.404Z,18.00
2018-10-11T18:48:52.319Z,17.90
2018-10-11T18:56:18.290Z,17.90
2018-10-11T18:58:47.176Z,17.90
2018-10-11T19:03:44.575Z,17.90
2018-10-11T19:06:13.518Z,17.90
2018-10-11T19:08:42.371Z,17.90
2018-10-11T19:21:05.478Z,17.80
2018-10-11T19:26:03.050Z,17.70
2018-10-11T19:28:31.943Z,17.70
2018-10-11T19:38:26.838Z,17.60
2018-10-11T19:40:55.731Z,17.70
2018-10-11T19:43:24.643Z,17.60
2018-10-11T19:45:53.534Z,17.60
2018-10-11T19:53:19.823Z,17.50
2018-10-11T19:55:48.731Z,17.50
2018-10-11T19:58:17.618Z,17.40
2018-10-11T20:05:43.615Z,17.50
2018-10-11T20:10:41.055Z,17.50
2018-10-11T20:15:38.488Z,17.50
2018-10-11T20:18:07.410Z,17.40
2018-10-11T20:23:04.886Z,17.40
2018-10-11T20:28:02.316Z,17.40
2018-10-11T20:32:59.746Z,17.40
2018-10-11T20:35:29.548Z,17.50
2018-10-11T20:37:58.422Z,17.50
2018-10-11T20:40:27.316Z,17.50
2018-10-11T20:42:56.194Z,17.50
2018-10-11T20:47:53.675Z,17.50
2018-10-11T20:52:51.109Z,17.50
2018-10-11T20:55:19.959Z,17.50
2018-10-11T21:07:42.985Z,17.40
2018-10-11T21:17:38.502Z,17.40
2018-10-11T21:20:07.552Z,17.40
2018-10-11T21:27:33.422Z,17.40
2018-10-11T21:30:02.328Z,17.30
2018-10-11T21:34:59.752Z,17.30
2018-10-11T21:37:28.653Z,17.20
2018-10-11T21:39:57.567Z,17.20
2018-10-11T21:52:20.683Z,17.20
2018-10-11T21:54:49.630Z,17.20
2018-10-11T22:04:44.179Z,17.10
2018-10-11T22:19:35.806Z,16.80
2018-10-11T22:22:04.700Z,16.90
2018-10-11T22:29:30.673Z,16.80
2018-10-11T22:41:53.796Z,16.80
2018-10-11T22:44:22.699Z,16.80
2018-10-11T22:46:51.603Z,16.80
2018-10-11T22:49:20.511Z,16.70
2018-10-11T22:51:49.398Z,16.80
2018-10-11T22:59:15.542Z,16.80
2018-10-11T23:01:44.430Z,16.70
2018-10-11T23:09:10.658Z,16.70
2018-10-11T23:11:39.544Z,16.60
2018-10-11T23:14:08.442Z,16.60
2018-10-11T23:16:37.335Z,16.60
2018-10-11T23:19:06.330Z,16.60
2018-10-11T23:21:35.222Z,16.60
2018-10-11T23:26:32.650Z,16.60
2018-10-11T23:31:30.094Z,16.60
2018-10-11T23:33:58.985Z,16.60
2018-10-11T23:38:56.480Z,16.60
2018-10-11T23:46:22.519Z,16.60
2018-10-11T23:48:51.446Z,16.60
2018-10-11T23:51:20.339Z,16.60
